56.7°F
Current conditions from King Hill
Updated every 5 minutes
 
  Saturday October 25, 2014

Station Historical Data
Daily Summary for January 3, 2012 Units:  Both    English   Metric
« Previous Day
Next Day »
Daily Weekly Monthly Yearly Custom
  High: Low: Average:
Temperature: 17.4 °F /  -8.1 °C -0.4 °F /  -18 °C 6.8 °F /  -14 °C
Dew Point: 10.5 °F /  -11.9 °C -6.7 °F /  -21.5 °C 0 °F /  -17.8 °C
Humidity: 80% 64% 73%
Wind Speed: 9.0mph /  14.5km/h - 3.8mph /  6.1km/h
Wind Gust: 18.0mph /  29km/h - -
Wind- - WNW
Pressure: 30.16 in /  1021.2 hPa 29.68 in /  1005 hPa -
Precipitation: 0.00 in /  0 mm    
Historical Graphs
 
 
Tabular Data for January 3, 2012
Time Temperature Dew Point Pressure Wind Wind Speed Wind Gust Humidity Daily Rainfall
00:00 17.1 °F /  -8.3 °C 10.5 °F /  -11.9 °C 29.68in /  1005hPa WNW 4.0mph /  6.4km/h 10.0mph /  16.1km/h 75% 0.00in /  0mm
00:05 17.1 °F /  -8.3 °C 9.9 °F /  -12.3 °C 29.68in /  1005hPa WNW 5.0mph /  8km/h 12.0mph /  19.3km/h 73% 0.00in /  0mm
00:10 17.2 °F /  -8.2 °C 9.1 °F /  -12.7 °C 29.68in /  1005hPa WNW 7.0mph /  11.3km/h 15.0mph /  24.1km/h 70% 0.00in /  0mm
00:15 17.4 °F /  -8.1 °C 9.0 °F /  -12.8 °C 29.69in /  1005.3hPa WNW 7.0mph /  11.3km/h 15.0mph /  24.1km/h 69% 0.00in /  0mm
00:20 17.3 °F /  -8.2 °C 8.9 °F /  -12.8 °C 29.69in /  1005.3hPa NW 6.0mph /  9.7km/h 15.0mph /  24.1km/h 69% 0.00in /  0mm
00:25 17.3 °F /  -8.2 °C 8.5 °F /  -13.1 °C 29.69in /  1005.3hPa NNW 5.0mph /  8km/h 15.0mph /  24.1km/h 68% 0.00in /  0mm
00:30 17.2 °F /  -8.2 °C 8.8 °F /  -12.9 °C 29.69in /  1005.3hPa NNW 3.0mph /  4.8km/h 13.0mph /  20.9km/h 69% 0.00in /  0mm
00:35 17.2 °F /  -8.2 °C 8.5 °F /  -13.1 °C 29.69in /  1005.3hPa WNW 6.0mph /  9.7km/h 12.0mph /  19.3km/h 68% 0.00in /  0mm
00:40 17.1 °F /  -8.3 °C 8.7 °F /  -12.9 °C 29.70in /  1005.6hPa NW 2.0mph /  3.2km/h 12.0mph /  19.3km/h 69% 0.00in /  0mm
00:45 17.1 °F /  -8.3 °C 8.7 °F /  -12.9 °C 29.70in /  1005.6hPa WNW 4.0mph /  6.4km/h 11.0mph /  17.7km/h 69% 0.00in /  0mm
00:50 17.1 °F /  -8.3 °C 8.7 °F /  -12.9 °C 29.70in /  1005.6hPa WNW 4.0mph /  6.4km/h 11.0mph /  17.7km/h 69% 0.00in /  0mm
00:55 17.0 °F /  -8.3 °C 7.9 °F /  -13.4 °C 29.70in /  1005.6hPa NW 7.0mph /  11.3km/h 12.0mph /  19.3km/h 67% 0.00in /  0mm
00:59 17.0 °F /  -8.3 °C 7.6 °F /  -13.6 °C 29.70in /  1005.6hPa WNW 5.0mph /  8km/h 16.0mph /  25.7km/h 66% 0.00in /  0mm
01:05 16.9 °F /  -8.4 °C 7.8 °F /  -13.4 °C 29.71in /  1006hPa WNW 5.0mph /  8km/h 16.0mph /  25.7km/h 67% 0.00in /  0mm
01:10 16.9 °F /  -8.4 °C 7.8 °F /  -13.4 °C 29.71in /  1006hPa NW 4.0mph /  6.4km/h 9.0mph /  14.5km/h 67% 0.00in /  0mm
01:15 16.9 °F /  -8.4 °C 8.5 °F /  -13.1 °C 29.72in /  1006.3hPa NNW 5.0mph /  8km/h 12.0mph /  19.3km/h 69% 0.00in /  0mm
01:19 16.6 °F /  -8.6 °C 8.5 °F /  -13.1 °C 29.72in /  1006.3hPa NNW 5.0mph /  8km/h 12.0mph /  19.3km/h 70% 0.00in /  0mm
01:25 16.2 °F /  -8.8 °C 8.5 °F /  -13.1 °C 29.72in /  1006.3hPa NW 5.0mph /  8km/h 11.0mph /  17.7km/h 71% 0.00in /  0mm
01:29 16.0 °F /  -8.9 °C 8.3 °F /  -13.2 °C 29.72in /  1006.3hPa NNW 7.0mph /  11.3km/h 15.0mph /  24.1km/h 71% 0.00in /  0mm
01:35 15.7 °F /  -9.1 °C 7.3 °F /  -13.7 °C 29.72in /  1006.3hPa WNW 8.0mph /  12.9km/h 15.0mph /  24.1km/h 69% 0.00in /  0mm
01:40 15.5 °F /  -9.2 °C 7.1 °F /  -13.8 °C 29.73in /  1006.7hPa NNW 7.0mph /  11.3km/h 14.0mph /  22.5km/h 69% 0.00in /  0mm
01:49 15.0 °F /  -9.4 °C 7.3 °F /  -13.7 °C 29.73in /  1006.7hPa NW 8.0mph /  12.9km/h 17.0mph /  27.4km/h 71% 0.00in /  0mm
01:55 14.8 °F /  -9.6 °C 7.1 °F /  -13.8 °C 29.73in /  1006.7hPa NW 5.0mph /  8km/h 16.0mph /  25.7km/h 71% 0.00in /  0mm
02:00 14.8 °F /  -9.6 °C 7.4 °F /  -13.7 °C 29.74in /  1007hPa NNW 3.0mph /  4.8km/h 12.0mph /  19.3km/h 72% 0.00in /  0mm
02:05 14.6 °F /  -9.7 °C 7.5 °F /  -13.6 °C 29.74in /  1007hPa NW 3.0mph /  4.8km/h 11.0mph /  17.7km/h 73% 0.00in /  0mm
02:09 14.5 °F /  -9.7 °C 7.4 °F /  -13.7 °C 29.74in /  1007hPa NW 3.0mph /  4.8km/h 11.0mph /  17.7km/h 73% 0.00in /  0mm
02:15 14.5 °F /  -9.7 °C 7.1 °F /  -13.8 °C 29.75in /  1007.3hPa NW 6.0mph /  9.7km/h 12.0mph /  19.3km/h 72% 0.00in /  0mm
02:20 14.5 °F /  -9.7 °C 7.4 °F /  -13.7 °C 29.75in /  1007.3hPa NW 6.0mph /  9.7km/h 16.0mph /  25.7km/h 73% 0.00in /  0mm
02:25 14.5 °F /  -9.7 °C 7.7 °F /  -13.5 °C 29.75in /  1007.3hPa NNW 4.0mph /  6.4km/h 16.0mph /  25.7km/h 74% 0.00in /  0mm
02:30 14.4 °F /  -9.8 °C 7.6 °F /  -13.6 °C 29.75in /  1007.3hPa NW 7.0mph /  11.3km/h 13.0mph /  20.9km/h 74% 0.00in /  0mm
02:34 14.3 °F /  -9.8 °C 7.5 °F /  -13.6 °C 29.75in /  1007.3hPa NW 6.0mph /  9.7km/h 13.0mph /  20.9km/h 74% 0.00in /  0mm
02:40 14.3 °F /  -9.8 °C 7.5 °F /  -13.6 °C 29.75in /  1007.3hPa WNW 5.0mph /  8km/h 16.0mph /  25.7km/h 74% 0.00in /  0mm
02:45 14.3 °F /  -9.8 °C 7.8 °F /  -13.4 °C 29.75in /  1007.3hPa NW 4.0mph /  6.4km/h 16.0mph /  25.7km/h 75% 0.00in /  0mm
02:49 14.3 °F /  -9.8 °C 7.8 °F /  -13.4 °C 29.75in /  1007.3hPa NW 6.0mph /  9.7km/h 10.0mph /  16.1km/h 75% 0.00in /  0mm
02:55 14.3 °F /  -9.8 °C 8.4 °F /  -13.1 °C 29.75in /  1007.3hPa NNW 2.0mph /  3.2km/h 10.0mph /  16.1km/h 77% 0.00in /  0mm
02:59 14.1 °F /  -9.9 °C 8.2 °F /  -13.2 °C 29.76in /  1007.7hPa NW 4.0mph /  6.4km/h 9.0mph /  14.5km/h 77% 0.00in /  0mm
03:05 13.8 °F /  -10.1 °C 7.9 °F /  -13.4 °C 29.76in /  1007.7hPa NW 6.0mph /  9.7km/h 9.0mph /  14.5km/h 77% 0.00in /  0mm
03:10 13.7 °F /  -10.2 °C 8.1 °F /  -13.3 °C 29.76in /  1007.7hPa NNW 4.0mph /  6.4km/h 9.0mph /  14.5km/h 78% 0.00in /  0mm
03:15 13.5 °F /  -10.3 °C 7.9 °F /  -13.4 °C 29.76in /  1007.7hPa NW 4.0mph /  6.4km/h 14.0mph /  22.5km/h 78% 0.00in /  0mm
03:20 13.3 °F /  -10.4 °C 8.0 °F /  -13.3 °C 29.76in /  1007.7hPa NW 2.0mph /  3.2km/h 14.0mph /  22.5km/h 79% 0.00in /  0mm
03:25 13.2 °F /  -10.4 °C 7.9 °F /  -13.4 °C 29.76in /  1007.7hPa NW 3.0mph /  4.8km/h 12.0mph /  19.3km/h 79% 0.00in /  0mm
03:30 13.2 °F /  -10.4 °C 8.2 °F /  -13.2 °C 29.76in /  1007.7hPa NW 2.0mph /  3.2km/h 12.0mph /  19.3km/h 80% 0.00in /  0mm
03:35 12.8 °F /  -10.7 °C 7.8 °F /  -13.4 °C 29.76in /  1007.7hPa NW 5.0mph /  8km/h 12.0mph /  19.3km/h 80% 0.00in /  0mm
03:39 12.5 °F /  -10.8 °C 7.5 °F /  -13.6 °C 29.76in /  1007.7hPa NNW 7.0mph /  11.3km/h 15.0mph /  24.1km/h 80% 0.00in /  0mm
03:45 12.2 °F /  -11 °C 7.2 °F /  -13.8 °C 29.77in /  1008hPa NNW 7.0mph /  11.3km/h 16.0mph /  25.7km/h 80% 0.00in /  0mm
03:50 12.0 °F /  -11.1 °C 7.0 °F /  -13.9 °C 29.77in /  1008hPa NNW 6.0mph /  9.7km/h 16.0mph /  25.7km/h 80% 0.00in /  0mm
03:55 11.8 °F /  -11.2 °C 6.8 °F /  -14 °C 29.77in /  1008hPa NW 5.0mph /  8km/h 13.0mph /  20.9km/h 80% 0.00in /  0mm
04:00 11.5 °F /  -11.4 °C 6.3 °F /  -14.3 °C 29.77in /  1008hPa NW 7.0mph /  11.3km/h 14.0mph /  22.5km/h 79% 0.00in /  0mm
04:05 11.3 °F /  -11.5 °C 6.1 °F /  -14.4 °C 29.77in /  1008hPa NW 4.0mph /  6.4km/h 14.0mph /  22.5km/h 79% 0.00in /  0mm
04:09 11.2 °F /  -11.6 °C 5.7 °F /  -14.6 °C 29.78in /  1008.4hPa NW 2.0mph /  3.2km/h 13.0mph /  20.9km/h 78% 0.00in /  0mm
04:15 11.1 °F /  -11.6 °C 5.6 °F /  -14.7 °C 29.78in /  1008.4hPa WNW 1.0mph /  1.6km/h 13.0mph /  20.9km/h 78% 0.00in /  0mm
04:20 10.9 °F /  -11.7 °C 5.4 °F /  -14.8 °C 29.78in /  1008.4hPa NW 6.0mph /  9.7km/h 12.0mph /  19.3km/h 78% 0.00in /  0mm
04:30 10.8 °F /  -11.8 °C 5.0 °F /  -15 °C 29.78in /  1008.4hPa NW 2.0mph /  3.2km/h 10.0mph /  16.1km/h 77% 0.00in /  0mm
04:35 10.8 °F /  -11.8 °C 5.0 °F /  -15 °C 29.78in /  1008.4hPa NW 4.0mph /  6.4km/h 9.0mph /  14.5km/h 77% 0.00in /  0mm
04:40 10.7 °F /  -11.8 °C 5.2 °F /  -14.9 °C 29.79in /  1008.7hPa Calm   8.0mph /  12.9km/h 78% 0.00in /  0mm
04:45 10.6 °F /  -11.9 °C 5.1 °F /  -14.9 °C 29.79in /  1008.7hPa NW 2.0mph /  3.2km/h 6.0mph /  9.7km/h 78% 0.00in /  0mm
04:50 10.6 °F /  -11.9 °C 5.4 °F /  -14.8 °C 29.79in /  1008.7hPa NNW 6.0mph /  9.7km/h 10.0mph /  16.1km/h 79% 0.00in /  0mm
04:54 10.5 °F /  -11.9 °C 5.6 °F /  -14.7 °C 29.79in /  1008.7hPa NW 4.0mph /  6.4km/h 11.0mph /  17.7km/h 80% 0.00in /  0mm
05:00 10.5 °F /  -11.9 °C 5.6 °F /  -14.7 °C 29.79in /  1008.7hPa NW 6.0mph /  9.7km/h 11.0mph /  17.7km/h 80% 0.00in /  0mm
05:04 10.5 °F /  -11.9 °C 5.6 °F /  -14.7 °C 29.79in /  1008.7hPa NW 1.0mph /  1.6km/h 11.0mph /  17.7km/h 80% 0.00in /  0mm
05:09 10.4 °F /  -12 °C 5.5 °F /  -14.7 °C 29.80in /  1009hPa NW 4.0mph /  6.4km/h 11.0mph /  17.7km/h 80% 0.00in /  0mm
05:15 10.4 °F /  -12 °C 5.2 °F /  -14.9 °C 29.80in /  1009hPa NW 7.0mph /  11.3km/h 12.0mph /  19.3km/h 79% 0.00in /  0mm
05:20 10.3 °F /  -12.1 °C 4.8 °F /  -15.1 °C 29.80in /  1009hPa NW 1.0mph /  1.6km/h 12.0mph /  19.3km/h 78% 0.00in /  0mm
05:30 10.0 °F /  -12.2 °C 3.9 °F /  -15.6 °C 29.81in /  1009.4hPa NW 3.0mph /  4.8km/h 11.0mph /  17.7km/h 76% 0.00in /  0mm
05:39 9.9 °F /  -12.3 °C 3.3 °F /  -15.9 °C 29.82in /  1009.7hPa NNW 5.0mph /  8km/h 14.0mph /  22.5km/h 74% 0.00in /  0mm
05:45 9.9 °F /  -12.3 °C 3.3 °F /  -15.9 °C 29.82in /  1009.7hPa NW 4.0mph /  6.4km/h 14.0mph /  22.5km/h 74% 0.00in /  0mm
05:49 9.9 °F /  -12.3 °C 3.3 °F /  -15.9 °C 29.82in /  1009.7hPa NW 8.0mph /  12.9km/h 13.0mph /  20.9km/h 74% 0.00in /  0mm
05:54 9.6 °F /  -12.4 °C 3.3 °F /  -15.9 °C 29.82in /  1009.7hPa NNW 1.0mph /  1.6km/h 17.0mph /  27.4km/h 75% 0.00in /  0mm
05:59 9.3 °F /  -12.6 °C 2.7 °F /  -16.3 °C 29.82in /  1009.7hPa NNW 4.0mph /  6.4km/h 17.0mph /  27.4km/h 74% 0.00in /  0mm
06:04 8.9 °F /  -12.8 °C 2.0 °F /  -16.7 °C 29.83in /  1010hPa NW 4.0mph /  6.4km/h 8.0mph /  12.9km/h 73% 0.00in /  0mm
06:10 8.7 °F /  -12.9 °C 1.8 °F /  -16.8 °C 29.83in /  1010hPa NW 6.0mph /  9.7km/h 13.0mph /  20.9km/h 73% 0.00in /  0mm
06:15 8.5 °F /  -13.1 °C 1.3 °F /  -17.1 °C 29.83in /  1010hPa WNW 5.0mph /  8km/h 14.0mph /  22.5km/h 72% 0.00in /  0mm
06:19 8.5 °F /  -13.1 °C 1.3 °F /  -17.1 °C 29.83in /  1010hPa WNW 4.0mph /  6.4km/h 14.0mph /  22.5km/h 72% 0.00in /  0mm
06:25 8.6 °F /  -13 °C 1.4 °F /  -17 °C 29.84in /  1010.4hPa NW 4.0mph /  6.4km/h 11.0mph /  17.7km/h 72% 0.00in /  0mm
06:29 8.6 °F /  -13 °C 1.1 °F /  -17.2 °C 29.84in /  1010.4hPa NW 6.0mph /  9.7km/h 13.0mph /  20.9km/h 71% 0.00in /  0mm
06:35 8.6 °F /  -13 °C 1.1 °F /  -17.2 °C 29.84in /  1010.4hPa NW 5.0mph /  8km/h 13.0mph /  20.9km/h 71% 0.00in /  0mm
06:39 8.7 °F /  -12.9 °C 1.8 °F /  -16.8 °C 29.84in /  1010.4hPa NNW 3.0mph /  4.8km/h 10.0mph /  16.1km/h 73% 0.00in /  0mm
06:45 8.7 °F /  -12.9 °C 2.7 °F /  -16.3 °C 29.84in /  1010.4hPa NW 5.0mph /  8km/h 15.0mph /  24.1km/h 76% 0.00in /  0mm
06:50 8.6 °F /  -13 °C 3.2 °F /  -16 °C 29.84in /  1010.4hPa NW 6.0mph /  9.7km/h 15.0mph /  24.1km/h 78% 0.00in /  0mm
06:54 8.6 °F /  -13 °C 3.4 °F /  -15.9 °C 29.84in /  1010.4hPa NW 4.0mph /  6.4km/h 11.0mph /  17.7km/h 79% 0.00in /  0mm
07:00 8.5 °F /  -13.1 °C 3.3 °F /  -15.9 °C 29.84in /  1010.4hPa NNW 6.0mph /  9.7km/h 12.0mph /  19.3km/h 79% 0.00in /  0mm
07:05 8.5 °F /  -13.1 °C 3.3 °F /  -15.9 °C 29.85in /  1010.7hPa NW 4.0mph /  6.4km/h 12.0mph /  19.3km/h 79% 0.00in /  0mm
07:09 8.3 °F /  -13.2 °C 3.1 °F /  -16.1 °C 29.85in /  1010.7hPa Calm   12.0mph /  19.3km/h 79% 0.00in /  0mm
07:15 8.3 °F /  -13.2 °C 2.9 °F /  -16.2 °C 29.85in /  1010.7hPa NW 3.0mph /  4.8km/h 10.0mph /  16.1km/h 78% 0.00in /  0mm
07:20 8.3 °F /  -13.2 °C 3.1 °F /  -16.1 °C 29.86in /  1011.1hPa NNW 5.0mph /  8km/h 11.0mph /  17.7km/h 79% 0.00in /  0mm
07:24 8.2 °F /  -13.2 °C 3.0 °F /  -16.1 °C 29.86in /  1011.1hPa NNW 4.0mph /  6.4km/h 11.0mph /  17.7km/h 79% 0.00in /  0mm
07:30 8.2 °F /  -13.2 °C 3.3 °F /  -15.9 °C 29.86in /  1011.1hPa NW 2.0mph /  3.2km/h 9.0mph /  14.5km/h 80% 0.00in /  0mm
07:35 8.2 °F /  -13.2 °C 3.3 °F /  -15.9 °C 29.86in /  1011.1hPa WNW 1.0mph /  1.6km/h 7.0mph /  11.3km/h 80% 0.00in /  0mm
07:40 8.2 °F /  -13.2 °C 3.3 °F /  -15.9 °C 29.87in /  1011.4hPa NW 5.0mph /  8km/h 9.0mph /  14.5km/h 80% 0.00in /  0mm
07:50 7.9 °F /  -13.4 °C 2.5 °F /  -16.4 °C 29.87in /  1011.4hPa NW 7.0mph /  11.3km/h 17.0mph /  27.4km/h 78% 0.00in /  0mm
07:54 7.7 °F /  -13.5 °C 2.0 °F /  -16.7 °C 29.88in /  1011.7hPa NNW 4.0mph /  6.4km/h 15.0mph /  24.1km/h 77% 0.00in /  0mm
07:59 7.6 °F /  -13.6 °C 1.6 °F /  -16.9 °C 29.88in /  1011.7hPa NW 9.0mph /  14.5km/h 15.0mph /  24.1km/h 76% 0.00in /  0mm
08:05 7.5 °F /  -13.6 °C 1.2 °F /  -17.1 °C 29.89in /  1012.1hPa NW 5.0mph /  8km/h 15.0mph /  24.1km/h 75% 0.00in /  0mm
08:10 7.5 °F /  -13.6 °C 1.2 °F /  -17.1 °C 29.89in /  1012.1hPa NW 4.0mph /  6.4km/h 12.0mph /  19.3km/h 75% 0.00in /  0mm
08:14 7.5 °F /  -13.6 °C 1.5 °F /  -16.9 °C 29.89in /  1012.1hPa NW 2.0mph /  3.2km/h 9.0mph /  14.5km/h 76% 0.00in /  0mm
08:19 7.6 °F /  -13.6 °C 1.6 °F /  -16.9 °C 29.90in /  1012.4hPa NW 3.0mph /  4.8km/h 9.0mph /  14.5km/h 76% 0.00in /  0mm
08:25 7.7 °F /  -13.5 °C 1.7 °F /  -16.8 °C 29.90in /  1012.4hPa WNW 2.0mph /  3.2km/h 11.0mph /  17.7km/h 76% 0.00in /  0mm
08:30 7.8 °F /  -13.4 °C 1.5 °F /  -16.9 °C 29.91in /  1012.8hPa WNW 7.0mph /  11.3km/h 12.0mph /  19.3km/h 75% 0.00in /  0mm
08:35 7.9 °F /  -13.4 °C 1.9 °F /  -16.7 °C 29.91in /  1012.8hPa NNW 3.0mph /  4.8km/h 12.0mph /  19.3km/h 76% 0.00in /  0mm
08:44 7.8 °F /  -13.4 °C 1.5 °F /  -16.9 °C 29.91in /  1012.8hPa NNW 3.0mph /  4.8km/h 9.0mph /  14.5km/h 75% 0.00in /  0mm
08:50 7.7 °F /  -13.5 °C 1.4 °F /  -17 °C 29.92in /  1013.1hPa NW 6.0mph /  9.7km/h 11.0mph /  17.7km/h 75% 0.00in /  0mm
08:55 7.6 °F /  -13.6 °C 1.3 °F /  -17.1 °C 29.92in /  1013.1hPa NW 4.0mph /  6.4km/h 11.0mph /  17.7km/h 75% 0.00in /  0mm
09:00 7.5 °F /  -13.6 °C 1.2 °F /  -17.1 °C 29.92in /  1013.1hPa NNW 6.0mph /  9.7km/h 14.0mph /  22.5km/h 75% 0.00in /  0mm
09:05 7.4 °F /  -13.7 °C 1.4 °F /  -17 °C 29.92in /  1013.1hPa NW 4.0mph /  6.4km/h 14.0mph /  22.5km/h 76% 0.00in /  0mm
09:09 7.4 °F /  -13.7 °C 1.7 °F /  -16.8 °C 29.93in /  1013.4hPa NNW 3.0mph /  4.8km/h 9.0mph /  14.5km/h 77% 0.00in /  0mm
09:15 7.4 °F /  -13.7 °C 1.7 °F /  -16.8 °C 29.93in /  1013.4hPa NNW 4.0mph /  6.4km/h 10.0mph /  16.1km/h 77% 0.00in /  0mm
09:20 7.4 °F /  -13.7 °C 1.7 °F /  -16.8 °C 29.93in /  1013.4hPa NNW 3.0mph /  4.8km/h 10.0mph /  16.1km/h 77% 0.00in /  0mm
09:25 7.4 °F /  -13.7 °C 1.7 °F /  -16.8 °C 29.93in /  1013.4hPa Calm   9.0mph /  14.5km/h 77% 0.00in /  0mm
09:30 7.4 °F /  -13.7 °C 1.7 °F /  -16.8 °C 29.93in /  1013.4hPa NW 3.0mph /  4.8km/h 8.0mph /  12.9km/h 77% 0.00in /  0mm
09:35 7.4 °F /  -13.7 °C 2.0 °F /  -16.7 °C 29.93in /  1013.4hPa Calm   8.0mph /  12.9km/h 78% 0.00in /  0mm
09:39 7.4 °F /  -13.7 °C 2.0 °F /  -16.7 °C 29.94in /  1013.8hPa NNW 1.0mph /  1.6km/h 7.0mph /  11.3km/h 78% 0.00in /  0mm
09:45 7.3 °F /  -13.7 °C 1.9 °F /  -16.7 °C 29.94in /  1013.8hPa NW 5.0mph /  8km/h 12.0mph /  19.3km/h 78% 0.00in /  0mm
09:50 7.1 °F /  -13.8 °C 2.0 °F /  -16.7 °C 29.94in /  1013.8hPa NW 3.0mph /  4.8km/h 13.0mph /  20.9km/h 79% 0.00in /  0mm
09:55 7.0 °F /  -13.9 °C 1.6 °F /  -16.9 °C 29.95in /  1014.1hPa WNW 6.0mph /  9.7km/h 13.0mph /  20.9km/h 78% 0.00in /  0mm
09:59 7.0 °F /  -13.9 °C 1.0 °F /  -17.2 °C 29.95in /  1014.1hPa NW 4.0mph /  6.4km/h 11.0mph /  17.7km/h 76% 0.00in /  0mm
10:05 7.0 °F /  -13.9 °C 0.8 °F /  -17.3 °C 29.95in /  1014.1hPa NW 3.0mph /  4.8km/h 13.0mph /  20.9km/h 75% 0.00in /  0mm
10:10 7.3 °F /  -13.7 °C 1.0 °F /  -17.2 °C 29.95in /  1014.1hPa NNW 3.0mph /  4.8km/h 13.0mph /  20.9km/h 75% 0.00in /  0mm
10:15 7.6 °F /  -13.6 °C 1.0 °F /  -17.2 °C 29.95in /  1014.1hPa NW 4.0mph /  6.4km/h 9.0mph /  14.5km/h 74% 0.00in /  0mm
10:19 7.6 °F /  -13.6 °C 0.8 °F /  -17.3 °C 29.96in /  1014.4hPa NW 6.0mph /  9.7km/h 13.0mph /  20.9km/h 73% 0.00in /  0mm
10:25 7.4 °F /  -13.7 °C 0.9 °F /  -17.3 °C 29.96in /  1014.4hPa NW 3.0mph /  4.8km/h 13.0mph /  20.9km/h 74% 0.00in /  0mm
10:30 7.0 °F /  -13.9 °C 0.5 °F /  -17.5 °C 29.96in /  1014.4hPa NW 4.0mph /  6.4km/h 11.0mph /  17.7km/h 74% 0.00in /  0mm
10:35 7.2 °F /  -13.8 °C 1.2 °F /  -17.1 °C 29.96in /  1014.4hPa NNW 2.0mph /  3.2km/h 11.0mph /  17.7km/h 76% 0.00in /  0mm
10:39 7.1 °F /  -13.8 °C 0.8 °F /  -17.3 °C 29.96in /  1014.4hPa NNW 7.0mph /  11.3km/h 10.0mph /  16.1km/h 75% 0.00in /  0mm
10:45 6.7 °F /  -14.1 °C 0.7 °F /  -17.4 °C 29.96in /  1014.4hPa NNW 4.0mph /  6.4km/h 13.0mph /  20.9km/h 76% 0.00in /  0mm
10:50 6.7 °F /  -14.1 °C 0.7 °F /  -17.4 °C 29.96in /  1014.4hPa NNW 4.0mph /  6.4km/h 13.0mph /  20.9km/h 76% 0.00in /  0mm
10:55 6.7 °F /  -14.1 °C 1.0 °F /  -17.2 °C 29.96in /  1014.4hPa NNW 3.0mph /  4.8km/h 10.0mph /  16.1km/h 77% 0.00in /  0mm
10:59 6.4 °F /  -14.2 °C 0.5 °F /  -17.5 °C 29.97in /  1014.8hPa NNW 6.0mph /  9.7km/h 11.0mph /  17.7km/h 76% 0.00in /  0mm
11:05 6.3 °F /  -14.3 °C 0.6 °F /  -17.4 °C 29.97in /  1014.8hPa NW 2.0mph /  3.2km/h 11.0mph /  17.7km/h 77% 0.00in /  0mm
11:10 6.2 °F /  -14.3 °C 0.3 °F /  -17.6 °C 29.97in /  1014.8hPa NW 7.0mph /  11.3km/h 14.0mph /  22.5km/h 76% 0.00in /  0mm
11:15 6.1 °F /  -14.4 °C -0.1 °F /  -17.8 °C 29.97in /  1014.8hPa NW 7.0mph /  11.3km/h 14.0mph /  22.5km/h 75% 0.00in /  0mm
11:20 6.1 °F /  -14.4 °C -0.1 °F /  -17.8 °C 29.97in /  1014.8hPa NW 6.0mph /  9.7km/h 11.0mph /  17.7km/h 75% 0.00in /  0mm
11:25 6.0 °F /  -14.4 °C -0.2 °F /  -17.9 °C 29.97in /  1014.8hPa NNW 5.0mph /  8km/h 13.0mph /  20.9km/h 75% 0.00in /  0mm
11:30 6.2 °F /  -14.3 °C 0.3 °F /  -17.6 °C 29.97in /  1014.8hPa NNW 4.0mph /  6.4km/h 13.0mph /  20.9km/h 76% 0.00in /  0mm
11:35 6.1 °F /  -14.4 °C -0.4 °F /  -18 °C 29.97in /  1014.8hPa NW 5.0mph /  8km/h 14.0mph /  22.5km/h 74% 0.00in /  0mm
11:40 6.0 °F /  -14.4 °C -0.8 °F /  -18.2 °C 29.97in /  1014.8hPa NW 6.0mph /  9.7km/h 15.0mph /  24.1km/h 73% 0.00in /  0mm
11:45 6.5 °F /  -14.2 °C 0.0 °F /  -17.8 °C 29.97in /  1014.8hPa NNW 2.0mph /  3.2km/h 15.0mph /  24.1km/h 74% 0.00in /  0mm
11:49 7.2 °F /  -13.8 °C 0.4 °F /  -17.6 °C 29.96in /  1014.4hPa NNW 3.0mph /  4.8km/h 11.0mph /  17.7km/h 73% 0.00in /  0mm
11:55 7.6 °F /  -13.6 °C 0.8 °F /  -17.3 °C 29.97in /  1014.8hPa North 3.0mph /  4.8km/h 8.0mph /  12.9km/h 73% 0.00in /  0mm
12:00 7.8 °F /  -13.4 °C 0.7 °F /  -17.4 °C 29.97in /  1014.8hPa NNW 4.0mph /  6.4km/h 10.0mph /  16.1km/h 72% 0.00in /  0mm
12:04 7.5 °F /  -13.6 °C 0.1 °F /  -17.7 °C 29.97in /  1014.8hPa NNW 6.0mph /  9.7km/h 14.0mph /  22.5km/h 71% 0.00in /  0mm
12:09 7.8 °F /  -13.4 °C 0.7 °F /  -17.4 °C 29.97in /  1014.8hPa NNW 3.0mph /  4.8km/h 14.0mph /  22.5km/h 72% 0.00in /  0mm
12:15 7.7 °F /  -13.5 °C 0.0 °F /  -17.8 °C 29.97in /  1014.8hPa NW 6.0mph /  9.7km/h 15.0mph /  24.1km/h 70% 0.00in /  0mm
12:20 7.0 °F /  -13.9 °C -0.7 °F /  -18.2 °C 29.97in /  1014.8hPa NNW 2.0mph /  3.2km/h 15.0mph /  24.1km/h 70% 0.00in /  0mm
12:24 7.2 °F /  -13.8 °C -0.2 °F /  -17.9 °C 29.97in /  1014.8hPa NW 3.0mph /  4.8km/h 14.0mph /  22.5km/h 71% 0.00in /  0mm
12:30 7.5 °F /  -13.6 °C 0.1 °F /  -17.7 °C 29.97in /  1014.8hPa NNW 4.0mph /  6.4km/h 9.0mph /  14.5km/h 71% 0.00in /  0mm
12:34 7.9 °F /  -13.4 °C 0.4 °F /  -17.6 °C 29.97in /  1014.8hPa North 2.0mph /  3.2km/h 12.0mph /  19.3km/h 71% 0.00in /  0mm
12:40 7.6 °F /  -13.6 °C -0.1 °F /  -17.8 °C 29.97in /  1014.8hPa NW 2.0mph /  3.2km/h 12.0mph /  19.3km/h 70% 0.00in /  0mm
12:45 7.2 °F /  -13.8 °C -0.8 °F /  -18.2 °C 29.97in /  1014.8hPa NW 6.0mph /  9.7km/h 11.0mph /  17.7km/h 69% 0.00in /  0mm
12:50 6.8 °F /  -14 °C -0.9 °F /  -18.3 °C 29.97in /  1014.8hPa NNW 5.0mph /  8km/h 11.0mph /  17.7km/h 70% 0.00in /  0mm
12:55 6.6 °F /  -14.1 °C -0.8 °F /  -18.2 °C 29.97in /  1014.8hPa NW 5.0mph /  8km/h 10.0mph /  16.1km/h 71% 0.00in /  0mm
12:59 6.9 °F /  -13.9 °C -0.5 °F /  -18.1 °C 29.97in /  1014.8hPa NNW 4.0mph /  6.4km/h 13.0mph /  20.9km/h 71% 0.00in /  0mm
13:05 7.0 °F /  -13.9 °C -0.4 °F /  -18 °C 29.97in /  1014.8hPa NNW 4.0mph /  6.4km/h 13.0mph /  20.9km/h 71% 0.00in /  0mm
13:10 7.2 °F /  -13.8 °C -0.5 °F /  -18.1 °C 29.97in /  1014.8hPa NNW 3.0mph /  4.8km/h 15.0mph /  24.1km/h 70% 0.00in /  0mm
13:14 7.3 °F /  -13.7 °C -0.4 °F /  -18 °C 29.96in /  1014.4hPa NW 4.0mph /  6.4km/h 15.0mph /  24.1km/h 70% 0.00in /  0mm
13:20 8.3 °F /  -13.2 °C 0.8 °F /  -17.3 °C 29.97in /  1014.8hPa NNW 3.0mph /  4.8km/h 8.0mph /  12.9km/h 71% 0.00in /  0mm
13:25 9.3 °F /  -12.6 °C 0.9 °F /  -17.3 °C 29.97in /  1014.8hPa NNW 5.0mph /  8km/h 11.0mph /  17.7km/h 68% 0.00in /  0mm
13:30 9.1 °F /  -12.7 °C 0.0 °F /  -17.8 °C 29.97in /  1014.8hPa NW 6.0mph /  9.7km/h 14.0mph /  22.5km/h 66% 0.00in /  0mm
13:35 8.7 °F /  -12.9 °C -0.7 °F /  -18.2 °C 29.97in /  1014.8hPa NW 4.0mph /  6.4km/h 14.0mph /  22.5km/h 65% 0.00in /  0mm
13:40 8.5 °F /  -13.1 °C -1.2 °F /  -18.4 °C 29.97in /  1014.8hPa NNW 6.0mph /  9.7km/h 13.0mph /  20.9km/h 64% 0.00in /  0mm
13:45 8.2 °F /  -13.2 °C -1.1 °F /  -18.4 °C 29.97in /  1014.8hPa NW 6.0mph /  9.7km/h 15.0mph /  24.1km/h 65% 0.00in /  0mm
13:50 8.1 °F /  -13.3 °C -1.2 °F /  -18.4 °C 29.97in /  1014.8hPa NNW 2.0mph /  3.2km/h 15.0mph /  24.1km/h 65% 0.00in /  0mm
13:59 7.4 °F /  -13.7 °C -1.9 °F /  -18.8 °C 29.98in /  1015.1hPa NNW 5.0mph /  8km/h 15.0mph /  24.1km/h 65% 0.00in /  0mm
14:05 7.1 °F /  -13.8 °C -2.2 °F /  -19 °C 29.98in /  1015.1hPa NW 5.0mph /  8km/h 15.0mph /  24.1km/h 65% 0.00in /  0mm
14:10 6.6 °F /  -14.1 °C -2.7 °F /  -19.3 °C 29.98in /  1015.1hPa NNW 4.0mph /  6.4km/h 14.0mph /  22.5km/h 65% 0.00in /  0mm
14:14 6.5 °F /  -14.2 °C -2.4 °F /  -19.1 °C 29.99in /  1015.5hPa NNW 3.0mph /  4.8km/h 10.0mph /  16.1km/h 66% 0.00in /  0mm
14:19 6.8 °F /  -14 °C -1.8 °F /  -18.8 °C 29.99in /  1015.5hPa NNW 8.0mph /  12.9km/h 13.0mph /  20.9km/h 67% 0.00in /  0mm
14:25 7.4 °F /  -13.7 °C -1.0 °F /  -18.3 °C 29.99in /  1015.5hPa NNW 3.0mph /  4.8km/h 13.0mph /  20.9km/h 68% 0.00in /  0mm
14:35 7.2 °F /  -13.8 °C -2.1 °F /  -18.9 °C 29.99in /  1015.5hPa NW 5.0mph /  8km/h 11.0mph /  17.7km/h 65% 0.00in /  0mm
14:40 6.9 °F /  -13.9 °C -2.1 °F /  -18.9 °C 29.99in /  1015.5hPa NNW 5.0mph /  8km/h 14.0mph /  22.5km/h 66% 0.00in /  0mm
14:44 7.0 °F /  -13.9 °C -2.6 °F /  -19.2 °C 30.00in /  1015.8hPa NNW 6.0mph /  9.7km/h 14.0mph /  22.5km/h 64% 0.00in /  0mm
14:50 7.1 °F /  -13.8 °C -2.5 °F /  -19.2 °C 30.00in /  1015.8hPa NW 5.0mph /  8km/h 14.0mph /  22.5km/h 64% 0.00in /  0mm
14:54 7.0 °F /  -13.9 °C -2.3 °F /  -19.1 °C 30.00in /  1015.8hPa NW 5.0mph /  8km/h 13.0mph /  20.9km/h 65% 0.00in /  0mm
14:59 7.1 °F /  -13.8 °C -1.9 °F /  -18.8 °C 30.00in /  1015.8hPa North 2.0mph /  3.2km/h 13.0mph /  20.9km/h 66% 0.00in /  0mm
15:05 7.3 °F /  -13.7 °C -1.4 °F /  -18.6 °C 30.00in /  1015.8hPa NW 1.0mph /  1.6km/h 11.0mph /  17.7km/h 67% 0.00in /  0mm
15:10 7.2 °F /  -13.8 °C -1.8 °F /  -18.8 °C 30.01in /  1016.1hPa NW 3.0mph /  4.8km/h 12.0mph /  19.3km/h 66% 0.00in /  0mm
15:14 6.7 °F /  -14.1 °C -2.3 °F /  -19.1 °C 30.01in /  1016.1hPa NNW 7.0mph /  11.3km/h 15.0mph /  24.1km/h 66% 0.00in /  0mm
15:19 6.3 °F /  -14.3 °C -2.6 °F /  -19.2 °C 30.01in /  1016.1hPa NNW 5.0mph /  8km/h 15.0mph /  24.1km/h 66% 0.00in /  0mm
15:25 5.9 °F /  -14.5 °C -3.3 °F /  -19.6 °C 30.01in /  1016.1hPa NNW 5.0mph /  8km/h 16.0mph /  25.7km/h 65% 0.00in /  0mm
15:30 5.7 °F /  -14.6 °C -3.5 °F /  -19.7 °C 30.01in /  1016.1hPa NNW 6.0mph /  9.7km/h 16.0mph /  25.7km/h 65% 0.00in /  0mm
15:34 5.5 °F /  -14.7 °C -3.4 °F /  -19.7 °C 30.02in /  1016.5hPa NW 6.0mph /  9.7km/h 18.0mph /  29km/h 66% 0.00in /  0mm
15:40 5.3 °F /  -14.8 °C -3.3 °F /  -19.6 °C 30.02in /  1016.5hPa NNW 5.0mph /  8km/h 18.0mph /  29km/h 67% 0.00in /  0mm
15:49 5.2 °F /  -14.9 °C -3.1 °F /  -19.5 °C 30.02in /  1016.5hPa NNW 2.0mph /  3.2km/h 18.0mph /  29km/h 68% 0.00in /  0mm
15:55 5.0 °F /  -15 °C -3.3 °F /  -19.6 °C 30.02in /  1016.5hPa NNW 7.0mph /  11.3km/h 16.0mph /  25.7km/h 68% 0.00in /  0mm
15:59 4.9 °F /  -15.1 °C -3.0 °F /  -19.4 °C 30.03in /  1016.8hPa NW 3.0mph /  4.8km/h 16.0mph /  25.7km/h 69% 0.00in /  0mm
16:04 4.8 °F /  -15.1 °C -2.8 °F /  -19.3 °C 30.03in /  1016.8hPa North 2.0mph /  3.2km/h 10.0mph /  16.1km/h 70% 0.00in /  0mm
16:09 4.6 °F /  -15.2 °C -3.3 °F /  -19.6 °C 30.04in /  1017.2hPa NW 5.0mph /  8km/h 10.0mph /  16.1km/h 69% 0.00in /  0mm
16:15 4.2 °F /  -15.4 °C -4.0 °F /  -20 °C 30.04in /  1017.2hPa NW 5.0mph /  8km/h 10.0mph /  16.1km/h 68% 0.00in /  0mm
16:19 4.0 °F /  -15.6 °C -3.9 °F /  -19.9 °C 30.04in /  1017.2hPa Calm   10.0mph /  16.1km/h 69% 0.00in /  0mm
16:24 3.8 °F /  -15.7 °C -4.1 °F /  -20.1 °C 30.05in /  1017.5hPa NNW 3.0mph /  4.8km/h 9.0mph /  14.5km/h 69% 0.00in /  0mm
16:30 3.7 °F /  -15.7 °C -3.9 °F /  -19.9 °C 30.05in /  1017.5hPa NNW 2.0mph /  3.2km/h 11.0mph /  17.7km/h 70% 0.00in /  0mm
16:35 3.6 °F /  -15.8 °C -4.0 °F /  -20 °C 30.05in /  1017.5hPa NW 5.0mph /  8km/h 12.0mph /  19.3km/h 70% 0.00in /  0mm
16:40 3.6 °F /  -15.8 °C -4.0 °F /  -20 °C 30.06in /  1017.8hPa NW 3.0mph /  4.8km/h 12.0mph /  19.3km/h 70% 0.00in /  0mm
16:44 3.6 °F /  -15.8 °C -3.7 °F /  -19.8 °C 30.06in /  1017.8hPa NNW 2.0mph /  3.2km/h 9.0mph /  14.5km/h 71% 0.00in /  0mm
16:49 3.5 °F /  -15.8 °C -3.8 °F /  -19.9 °C 30.06in /  1017.8hPa NNW 3.0mph /  4.8km/h 10.0mph /  16.1km/h 71% 0.00in /  0mm
16:55 3.5 °F /  -15.8 °C -3.8 °F /  -19.9 °C 30.06in /  1017.8hPa NNW 5.0mph /  8km/h 14.0mph /  22.5km/h 71% 0.00in /  0mm
16:59 3.3 °F /  -15.9 °C -4.0 °F /  -20 °C 30.06in /  1017.8hPa NNW 2.0mph /  3.2km/h 14.0mph /  22.5km/h 71% 0.00in /  0mm
17:04 3.2 °F /  -16 °C -4.1 °F /  -20.1 °C 30.06in /  1017.8hPa NW 5.0mph /  8km/h 12.0mph /  19.3km/h 71% 0.00in /  0mm
17:09 3.1 °F /  -16.1 °C -4.2 °F /  -20.1 °C 30.06in /  1017.8hPa NNW 3.0mph /  4.8km/h 12.0mph /  19.3km/h 71% 0.00in /  0mm
17:15 2.9 °F /  -16.2 °C -4.7 °F /  -20.4 °C 30.06in /  1017.8hPa NNW 4.0mph /  6.4km/h 10.0mph /  16.1km/h 70% 0.00in /  0mm
17:19 2.8 °F /  -16.2 °C -4.5 °F /  -20.3 °C 30.07in /  1018.2hPa NNW 1.0mph /  1.6km/h 10.0mph /  16.1km/h 71% 0.00in /  0mm
17:25 2.8 °F /  -16.2 °C -4.8 °F /  -20.4 °C 30.07in /  1018.2hPa NNW 3.0mph /  4.8km/h 9.0mph /  14.5km/h 70% 0.00in /  0mm
17:30 2.6 °F /  -16.3 °C -5.0 °F /  -20.6 °C 30.07in /  1018.2hPa NNW 3.0mph /  4.8km/h 9.0mph /  14.5km/h 70% 0.00in /  0mm
17:35 2.2 °F /  -16.6 °C -5.3 °F /  -20.7 °C 30.07in /  1018.2hPa NW 1.0mph /  1.6km/h 11.0mph /  17.7km/h 70% 0.00in /  0mm
17:40 2.0 °F /  -16.7 °C -5.5 °F /  -20.8 °C 30.07in /  1018.2hPa NNW 3.0mph /  4.8km/h 11.0mph /  17.7km/h 70% 0.00in /  0mm
17:44 1.8 °F /  -16.8 °C -5.4 °F /  -20.8 °C 30.08in /  1018.5hPa NNW 4.0mph /  6.4km/h 11.0mph /  17.7km/h 71% 0.00in /  0mm
17:50 1.8 °F /  -16.8 °C -5.1 °F /  -20.6 °C 30.08in /  1018.5hPa NW 3.0mph /  4.8km/h 10.0mph /  16.1km/h 72% 0.00in /  0mm
17:54 1.7 °F /  -16.8 °C -5.2 °F /  -20.7 °C 30.08in /  1018.5hPa NNW 1.0mph /  1.6km/h 10.0mph /  16.1km/h 72% 0.00in /  0mm
18:00 1.7 °F /  -16.8 °C -5.2 °F /  -20.7 °C 30.08in /  1018.5hPa North 2.0mph /  3.2km/h 9.0mph /  14.5km/h 72% 0.00in /  0mm
18:04 1.6 °F /  -16.9 °C -5.3 °F /  -20.7 °C 30.08in /  1018.5hPa NNE 2.0mph /  3.2km/h 9.0mph /  14.5km/h 72% 0.00in /  0mm
18:09 1.4 °F /  -17 °C -5.5 °F /  -20.8 °C 30.08in /  1018.5hPa NNW 1.0mph /  1.6km/h 8.0mph /  12.9km/h 72% 0.00in /  0mm
18:15 1.2 °F /  -17.1 °C -5.7 °F /  -20.9 °C 30.08in /  1018.5hPa Calm   8.0mph /  12.9km/h 72% 0.00in /  0mm
18:20 1.1 °F /  -17.2 °C -5.8 °F /  -21 °C 30.09in /  1018.8hPa NNE 1.0mph /  1.6km/h 8.0mph /  12.9km/h 72% 0.00in /  0mm
18:24 1.0 °F /  -17.2 °C -5.9 °F /  -21.1 °C 30.09in /  1018.8hPa North 3.0mph /  4.8km/h 15.0mph /  24.1km/h 72% 0.00in /  0mm
18:30 0.9 °F /  -17.3 °C -6.0 °F /  -21.1 °C 30.09in /  1018.8hPa NNW 1.0mph /  1.6km/h 15.0mph /  24.1km/h 72% 0.00in /  0mm
18:39 0.9 °F /  -17.3 °C -5.7 °F /  -20.9 °C 30.10in /  1019.2hPa Calm   4.0mph /  6.4km/h 73% 0.00in /  0mm
18:45 0.9 °F /  -17.3 °C -5.7 °F /  -20.9 °C 30.10in /  1019.2hPa Calm   4.0mph /  6.4km/h 73% 0.00in /  0mm
18:49 0.7 °F /  -17.4 °C -6.2 °F /  -21.2 °C 30.11in /  1019.5hPa NNE 1.0mph /  1.6km/h 3.0mph /  4.8km/h 72% 0.00in /  0mm
18:54 0.6 °F /  -17.4 °C -6.3 °F /  -21.3 °C 30.11in /  1019.5hPa Calm   4.0mph /  6.4km/h 72% 0.00in /  0mm
19:00 0.5 °F /  -17.5 °C -6.1 °F /  -21.2 °C 30.11in /  1019.5hPa Calm   4.0mph /  6.4km/h 73% 0.00in /  0mm
19:04 0.5 °F /  -17.5 °C -6.4 °F /  -21.3 °C 30.12in /  1019.9hPa NNE 2.0mph /  3.2km/h 6.0mph /  9.7km/h 72% 0.00in /  0mm
19:10 0.5 °F /  -17.5 °C -6.1 °F /  -21.2 °C 30.12in /  1019.9hPa Calm   6.0mph /  9.7km/h 73% 0.00in /  0mm
19:14 0.6 °F /  -17.4 °C -6.0 °F /  -21.1 °C 30.12in /  1019.9hPa Calm   4.0mph /  6.4km/h 73% 0.00in /  0mm
19:20 0.7 °F /  -17.4 °C -5.9 °F /  -21.1 °C 30.12in /  1019.9hPa Calm   2.0mph /  3.2km/h 73% 0.00in /  0mm
19:25 0.8 °F /  -17.3 °C -5.8 °F /  -21 °C 30.13in /  1020.2hPa Calm   3.0mph /  4.8km/h 73% 0.00in /  0mm
19:30 1.0 °F /  -17.2 °C -5.6 °F /  -20.9 °C 30.13in /  1020.2hPa NNW 1.0mph /  1.6km/h 5.0mph /  8km/h 73% 0.00in /  0mm
19:34 1.1 °F /  -17.2 °C -5.5 °F /  -20.8 °C 30.14in /  1020.5hPa NW 5.0mph /  8km/h 11.0mph /  17.7km/h 73% 0.00in /  0mm
19:39 1.2 °F /  -17.1 °C -5.4 °F /  -20.8 °C 30.14in /  1020.5hPa NNW 3.0mph /  4.8km/h 11.0mph /  17.7km/h 73% 0.00in /  0mm
19:45 1.2 °F /  -17.1 °C -5.4 °F /  -20.8 °C 30.14in /  1020.5hPa NNW 3.0mph /  4.8km/h 9.0mph /  14.5km/h 73% 0.00in /  0mm
19:49 1.1 °F /  -17.2 °C -5.5 °F /  -20.8 °C 30.14in /  1020.5hPa North 3.0mph /  4.8km/h 9.0mph /  14.5km/h 73% 0.00in /  0mm
19:55 1.0 °F /  -17.2 °C -5.6 °F /  -20.9 °C 30.14in /  1020.5hPa NNW 2.0mph /  3.2km/h 6.0mph /  9.7km/h 73% 0.00in /  0mm
19:59 0.9 °F /  -17.3 °C -5.7 °F /  -20.9 °C 30.14in /  1020.5hPa NW 2.0mph /  3.2km/h 6.0mph /  9.7km/h 73% 0.00in /  0mm
20:05 0.8 °F /  -17.3 °C -5.8 °F /  -21 °C 30.14in /  1020.5hPa NW 1.0mph /  1.6km/h 5.0mph /  8km/h 73% 0.00in /  0mm
20:09 0.7 °F /  -17.4 °C -5.9 °F /  -21.1 °C 30.14in /  1020.5hPa NW 3.0mph /  4.8km/h 6.0mph /  9.7km/h 73% 0.00in /  0mm
20:15 0.6 °F /  -17.4 °C -6.0 °F /  -21.1 °C 30.15in /  1020.9hPa NW 4.0mph /  6.4km/h 8.0mph /  12.9km/h 73% 0.00in /  0mm
20:19 0.5 °F /  -17.5 °C -6.1 °F /  -21.2 °C 30.15in /  1020.9hPa NW 2.0mph /  3.2km/h 8.0mph /  12.9km/h 73% 0.00in /  0mm
20:25 0.5 °F /  -17.5 °C -5.8 °F /  -21 °C 30.15in /  1020.9hPa NNW 2.0mph /  3.2km/h 11.0mph /  17.7km/h 74% 0.00in /  0mm
20:30 0.5 °F /  -17.5 °C -5.8 °F /  -21 °C 30.15in /  1020.9hPa NNW 2.0mph /  3.2km/h 11.0mph /  17.7km/h 74% 0.00in /  0mm
20:35 0.4 °F /  -17.6 °C -5.9 °F /  -21.1 °C 30.15in /  1020.9hPa NNW 3.0mph /  4.8km/h 8.0mph /  12.9km/h 74% 0.00in /  0mm
20:39 0.3 °F /  -17.6 °C -6.3 °F /  -21.3 °C 30.15in /  1020.9hPa NNW 3.0mph /  4.8km/h 12.0mph /  19.3km/h 73% 0.00in /  0mm
20:45 0.2 °F /  -17.7 °C -6.4 °F /  -21.3 °C 30.14in /  1020.5hPa NNW 2.0mph /  3.2km/h 12.0mph /  19.3km/h 73% 0.00in /  0mm
20:49 0.1 °F /  -17.7 °C -6.5 °F /  -21.4 °C 30.15in /  1020.9hPa NW 2.0mph /  3.2km/h 8.0mph /  12.9km/h 73% 0.00in /  0mm
20:54 0.0 °F /  -17.8 °C -6.6 °F /  -21.4 °C 30.15in /  1020.9hPa NNW 1.0mph /  1.6km/h 12.0mph /  19.3km/h 73% 0.00in /  0mm
21:00 0.0 °F /  -17.8 °C -6.6 °F /  -21.4 °C 30.15in /  1020.9hPa North 2.0mph /  3.2km/h 12.0mph /  19.3km/h 73% 0.00in /  0mm
21:05 0.0 °F /  -17.8 °C -6.3 °F /  -21.3 °C 30.15in /  1020.9hPa North 1.0mph /  1.6km/h 8.0mph /  12.9km/h 74% 0.00in /  0mm
21:09 0.0 °F /  -17.8 °C -6.6 °F /  -21.4 °C 30.15in /  1020.9hPa NW 1.0mph /  1.6km/h 10.0mph /  16.1km/h 73% 0.00in /  0mm
21:15 0.1 °F /  -17.7 °C -6.2 °F /  -21.2 °C 30.15in /  1020.9hPa NE 2.0mph /  3.2km/h 10.0mph /  16.1km/h 74% 0.00in /  0mm
21:19 0.1 °F /  -17.7 °C -6.2 °F /  -21.2 °C 30.15in /  1020.9hPa Calm   10.0mph /  16.1km/h 74% 0.00in /  0mm
21:25 0.2 °F /  -17.7 °C -6.1 °F /  -21.2 °C 30.16in /  1021.2hPa Calm   6.0mph /  9.7km/h 74% 0.00in /  0mm
21:30 0.2 °F /  -17.7 °C -6.1 °F /  -21.2 °C 30.16in /  1021.2hPa NE 1.0mph /  1.6km/h 8.0mph /  12.9km/h 74% 0.00in /  0mm
21:34 0.2 °F /  -17.7 °C -6.1 °F /  -21.2 °C 30.16in /  1021.2hPa NNW 1.0mph /  1.6km/h 8.0mph /  12.9km/h 74% 0.00in /  0mm
21:39 0.1 °F /  -17.7 °C -6.2 °F /  -21.2 °C 30.16in /  1021.2hPa NNE 1.0mph /  1.6km/h 6.0mph /  9.7km/h 74% 0.00in /  0mm
21:45 0.1 °F /  -17.7 °C -6.5 °F /  -21.4 °C 30.16in /  1021.2hPa North 4.0mph /  6.4km/h 9.0mph /  14.5km/h 73% 0.00in /  0mm
21:49 0.1 °F /  -17.7 °C -6.5 °F /  -21.4 °C 30.16in /  1021.2hPa NNW 1.0mph /  1.6km/h 9.0mph /  14.5km/h 73% 0.00in /  0mm
21:55 0.1 °F /  -17.7 °C -6.5 °F /  -21.4 °C 30.16in /  1021.2hPa NE 1.0mph /  1.6km/h 8.0mph /  12.9km/h 73% 0.00in /  0mm
21:59 0.1 °F /  -17.7 °C -6.5 °F /  -21.4 °C 30.16in /  1021.2hPa NNW 1.0mph /  1.6km/h 6.0mph /  9.7km/h 73% 0.00in /  0mm
22:05 0.2 °F /  -17.7 °C -6.4 °F /  -21.3 °C 30.16in /  1021.2hPa Calm   4.0mph /  6.4km/h 73% 0.00in /  0mm
22:09 0.2 °F /  -17.7 °C -6.4 °F /  -21.3 °C 30.16in /  1021.2hPa North 1.0mph /  1.6km/h 4.0mph /  6.4km/h 73% 0.00in /  0mm
22:14 0.2 °F /  -17.7 °C -6.4 °F /  -21.3 °C 30.16in /  1021.2hPa NNE 1.0mph /  1.6km/h 4.0mph /  6.4km/h 73% 0.00in /  0mm
22:20 0.2 °F /  -17.7 °C -6.4 °F /  -21.3 °C 30.16in /  1021.2hPa NNW 1.0mph /  1.6km/h 5.0mph /  8km/h 73% 0.00in /  0mm
22:30 0.2 °F /  -17.7 °C -6.1 °F /  -21.2 °C 30.16in /  1021.2hPa NNW 1.0mph /  1.6km/h 6.0mph /  9.7km/h 74% 0.00in /  0mm
22:39 0.2 °F /  -17.7 °C -6.1 °F /  -21.2 °C 30.16in /  1021.2hPa Calm   5.0mph /  8km/h 74% 0.00in /  0mm
22:44 0.2 °F /  -17.7 °C -5.8 °F /  -21 °C 30.16in /  1021.2hPa Calm   3.0mph /  4.8km/h 75% 0.00in /  0mm
22:49 0.2 °F /  -17.7 °C -6.1 °F /  -21.2 °C 30.16in /  1021.2hPa Calm   3.0mph /  4.8km/h 74% 0.00in /  0mm
22:55 0.2 °F /  -17.7 °C -5.8 °F /  -21 °C 30.16in /  1021.2hPa Calm   2.0mph /  3.2km/h 75% 0.00in /  0mm
22:59 0.2 °F /  -17.7 °C -5.8 °F /  -21 °C 30.16in /  1021.2hPa NNW 2.0mph /  3.2km/h 5.0mph /  8km/h 75% 0.00in /  0mm
23:04 0.2 °F /  -17.7 °C -5.8 °F /  -21 °C 30.16in /  1021.2hPa Calm   6.0mph /  9.7km/h 75% 0.00in /  0mm
23:09 0.2 °F /  -17.7 °C -5.8 °F /  -21 °C 30.16in /  1021.2hPa Calm   6.0mph /  9.7km/h 75% 0.00in /  0mm
23:15 0.3 °F /  -17.6 °C -5.7 °F /  -20.9 °C 30.16in /  1021.2hPa Calm   3.0mph /  4.8km/h 75% 0.00in /  0mm
23:19 0.2 °F /  -17.7 °C -5.8 °F /  -21 °C 30.16in /  1021.2hPa Calm   5.0mph /  8km/h 75% 0.00in /  0mm
23:25 0.1 °F /  -17.7 °C -5.9 °F /  -21.1 °C 30.16in /  1021.2hPa NNE 2.0mph /  3.2km/h 10.0mph /  16.1km/h 75% 0.00in /  0mm
23:29 0.0 °F /  -17.8 °C -6.0 °F /  -21.1 °C 30.16in /  1021.2hPa NNW 1.0mph /  1.6km/h 10.0mph /  16.1km/h 75% 0.00in /  0mm
23:34 -0.1 °F /  -17.8 °C -6.1 °F /  -21.2 °C 30.16in /  1021.2hPa NW 1.0mph /  1.6km/h 8.0mph /  12.9km/h 75% 0.00in /  0mm
23:40 -0.2 °F /  -17.9 °C -6.2 °F /  -21.2 °C 30.15in /  1020.9hPa NNW 1.0mph /  1.6km/h 8.0mph /  12.9km/h 75% 0.00in /  0mm
23:45 -0.3 °F /  -17.9 °C -6.3 °F /  -21.3 °C 30.15in /  1020.9hPa Calm   4.0mph /  6.4km/h 75% 0.00in /  0mm
23:49 -0.4 °F /  -18 °C -6.4 °F /  -21.3 °C 30.16in /  1021.2hPa NNE 1.0mph /  1.6km/h 4.0mph /  6.4km/h 75% 0.00in /  0mm
23:54 -0.4 °F /  -18 °C -6.7 °F /  -21.5 °C 30.16in /  1021.2hPa NNE 1.0mph /  1.6km/h 8.0mph /  12.9km/h 74% 0.00in /  0mm
23:59 -0.4 °F /  -18 °C -6.4 °F /  -21.3 °C 30.16in /  1021.2hPa Calm   8.0mph /  12.9km/h 75% 0.00in /  0mm
Westford Weather
Compliments of Weather Underground

 
 
Current Radar Loop:

Copyright © WestfordWeather.net 2007-2014. All rights reserved.